sensor_id;sensor_type;location;lat;lon;timestamp;P1;durP1;ratioP1;P2;durP2;ratioP2
20623;SDS011;10471;42.736;23.346;2023-07-13T00:00:37;13.37;;;10.00;;
20623;SDS011;10471;42.736;23.346;2023-07-13T00:03:04;12.97;;;10.20;;
20623;SDS011;10471;42.736;23.346;2023-07-13T00:05:30;15.07;;;10.50;;
20623;SDS011;10471;42.736;23.346;2023-07-13T00:07:55;17.07;;;10.20;;
20623;SDS011;10471;42.736;23.346;2023-07-13T00:10:21;12.53;;;10.07;;
20623;SDS011;10471;42.736;23.346;2023-07-13T00:12:48;14.60;;;10.20;;
20623;SDS011;10471;42.736;23.346;2023-07-13T00:15:15;11.37;;;9.93;;
20623;SDS011;10471;42.736;23.346;2023-07-13T00:17:45;15.10;;;10.33;;
20623;SDS011;10471;42.736;23.346;2023-07-13T00:20:12;11.17;;;9.60;;
20623;SDS011;10471;42.736;23.346;2023-07-13T00:22:38;14.77;;;10.00;;
20623;SDS011;10471;42.736;23.346;2023-07-13T00:25:03;17.03;;;10.60;;
20623;SDS011;10471;42.736;23.346;2023-07-13T00:27:29;12.37;;;10.27;;
20623;SDS011;10471;42.736;23.346;2023-07-13T00:29:57;13.60;;;10.63;;
20623;SDS011;10471;42.736;23.346;2023-07-13T00:32:24;13.57;;;11.33;;
20623;SDS011;10471;42.736;23.346;2023-07-13T00:34:52;13.40;;;11.13;;
20623;SDS011;10471;42.736;23.346;2023-07-13T00:37:17;18.40;;;11.33;;
20623;SDS011;10471;42.736;23.346;2023-07-13T00:39:43;14.07;;;10.80;;
20623;SDS011;10471;42.736;23.346;2023-07-13T00:42:08;13.47;;;10.87;;
20623;SDS011;10471;42.736;23.346;2023-07-13T00:44:34;15.47;;;10.97;;
20623;SDS011;10471;42.736;23.346;2023-07-13T00:46:59;15.53;;;11.10;;
20623;SDS011;10471;42.736;23.346;2023-07-13T00:49:25;16.70;;;11.33;;
20623;SDS011;10471;42.736;23.346;2023-07-13T00:51:56;14.60;;;10.50;;
20623;SDS011;10471;42.736;23.346;2023-07-13T00:54:26;13.97;;;11.17;;
20623;SDS011;10471;42.736;23.346;2023-07-13T00:56:55;12.57;;;10.90;;
20623;SDS011;10471;42.736;23.346;2023-07-13T00:59:25;14.87;;;10.93;;
20623;SDS011;10471;42.736;23.346;2023-07-13T01:01:51;15.03;;;11.73;;
20623;SDS011;10471;42.736;23.346;2023-07-13T01:04:17;12.00;;;10.17;;
20623;SDS011;10471;42.736;23.346;2023-07-13T01:06:43;13.20;;;11.37;;
20623;SDS011;10471;42.736;23.346;2023-07-13T01:09:10;13.53;;;11.30;;
20623;SDS011;10471;42.736;23.346;2023-07-13T01:11:37;16.23;;;11.33;;
20623;SDS011;10471;42.736;23.346;2023-07-13T01:14:03;14.13;;;12.00;;
20623;SDS011;10471;42.736;23.346;2023-07-13T01:16:30;14.23;;;10.47;;
20623;SDS011;10471;42.736;23.346;2023-07-13T01:18:57;14.43;;;11.30;;
20623;SDS011;10471;42.736;23.346;2023-07-13T01:21:29;14.23;;;10.70;;
20623;SDS011;10471;42.736;23.346;2023-07-13T01:23:57;16.07;;;10.77;;
20623;SDS011;10471;42.736;23.346;2023-07-13T01:26:23;16.17;;;11.30;;
20623;SDS011;10471;42.736;23.346;2023-07-13T01:28:48;14.93;;;11.30;;
20623;SDS011;10471;42.736;23.346;2023-07-13T01:31:14;13.07;;;10.90;;
20623;SDS011;10471;42.736;23.346;2023-07-13T01:33:39;15.67;;;11.30;;
20623;SDS011;10471;42.736;23.346;2023-07-13T01:36:06;12.90;;;10.53;;
20623;SDS011;10471;42.736;23.346;2023-07-13T01:38:32;14.13;;;11.60;;
20623;SDS011;10471;42.736;23.346;2023-07-13T01:40:58;14.20;;;11.07;;
20623;SDS011;10471;42.736;23.346;2023-07-13T01:43:24;13.03;;;10.90;;
20623;SDS011;10471;42.736;23.346;2023-07-13T01:45:50;13.53;;;11.27;;
20623;SDS011;10471;42.736;23.346;2023-07-13T01:48:15;12.20;;;10.77;;
20623;SDS011;10471;42.736;23.346;2023-07-13T01:50:40;16.93;;;11.17;;
20623;SDS011;10471;42.736;23.346;2023-07-13T01:53:06;13.53;;;11.27;;
20623;SDS011;10471;42.736;23.346;2023-07-13T01:55:32;13.90;;;11.23;;
20623;SDS011;10471;42.736;23.346;2023-07-13T01:57:57;14.03;;;11.13;;
20623;SDS011;10471;42.736;23.346;2023-07-13T02:00:23;14.37;;;10.83;;
20623;SDS011;10471;42.736;23.346;2023-07-13T02:02:49;14.70;;;10.80;;
20623;SDS011;10471;42.736;23.346;2023-07-13T02:05:15;12.70;;;11.13;;
20623;SDS011;10471;42.736;23.346;2023-07-13T02:07:41;12.07;;;10.67;;
20623;SDS011;10471;42.736;23.346;2023-07-13T02:10:07;15.10;;;11.40;;
20623;SDS011;10471;42.736;23.346;2023-07-13T02:12:34;13.67;;;11.00;;
20623;SDS011;10471;42.736;23.346;2023-07-13T02:14:59;12.27;;;10.90;;
20623;SDS011;10471;42.736;23.346;2023-07-13T02:17:25;15.13;;;11.47;;
20623;SDS011;10471;42.736;23.346;2023-07-13T02:19:51;14.47;;;11.70;;
20623;SDS011;10471;42.736;23.346;2023-07-13T02:22:17;13.00;;;11.30;;
20623;SDS011;10471;42.736;23.346;2023-07-13T02:24:43;14.13;;;11.43;;
20623;SDS011;10471;42.736;23.346;2023-07-13T02:27:08;14.97;;;11.33;;
20623;SDS011;10471;42.736;23.346;2023-07-13T02:29:34;15.83;;;11.23;;
20623;SDS011;10471;42.736;23.346;2023-07-13T02:31:59;17.67;;;11.77;;
20623;SDS011;10471;42.736;23.346;2023-07-13T02:34:25;15.03;;;12.60;;
20623;SDS011;10471;42.736;23.346;2023-07-13T02:36:50;14.40;;;12.63;;
20623;SDS011;10471;42.736;23.346;2023-07-13T02:39:16;14.53;;;12.23;;
20623;SDS011;10471;42.736;23.346;2023-07-13T02:41:41;15.97;;;12.53;;
20623;SDS011;10471;42.736;23.346;2023-07-13T02:44:07;16.33;;;12.60;;
20623;SDS011;10471;42.736;23.346;2023-07-13T02:46:33;17.83;;;12.57;;
20623;SDS011;10471;42.736;23.346;2023-07-13T02:49:00;17.83;;;12.20;;
20623;SDS011;10471;42.736;23.346;2023-07-13T02:51:26;16.97;;;12.63;;
20623;SDS011;10471;42.736;23.346;2023-07-13T02:53:51;14.17;;;11.90;;
20623;SDS011;10471;42.736;23.346;2023-07-13T02:56:18;17.23;;;12.60;;
20623;SDS011;10471;42.736;23.346;2023-07-13T02:58:47;15.97;;;12.10;;
20623;SDS011;10471;42.736;23.346;2023-07-13T03:01:13;13.23;;;11.77;;
20623;SDS011;10471;42.736;23.346;2023-07-13T03:03:44;17.23;;;12.37;;
20623;SDS011;10471;42.736;23.346;2023-07-13T03:06:10;14.87;;;11.77;;
20623;SDS011;10471;42.736;23.346;2023-07-13T03:08:36;16.93;;;11.57;;
20623;SDS011;10471;42.736;23.346;2023-07-13T03:11:02;19.27;;;12.77;;
20623;SDS011;10471;42.736;23.346;2023-07-13T03:13:33;16.87;;;12.10;;
20623;SDS011;10471;42.736;23.346;2023-07-13T03:15:59;16.47;;;13.00;;
20623;SDS011;10471;42.736;23.346;2023-07-13T03:18:28;19.40;;;13.30;;
20623;SDS011;10471;42.736;23.346;2023-07-13T03:20:54;19.37;;;13.03;;
20623;SDS011;10471;42.736;23.346;2023-07-13T03:23:19;16.67;;;12.97;;
20623;SDS011;10471;42.736;23.346;2023-07-13T03:25:46;20.13;;;12.83;;
20623;SDS011;10471;42.736;23.346;2023-07-13T03:28:12;20.77;;;13.37;;
20623;SDS011;10471;42.736;23.346;2023-07-13T03:30:38;18.17;;;12.80;;
20623;SDS011;10471;42.736;23.346;2023-07-13T03:33:04;18.37;;;13.10;;
20623;SDS011;10471;42.736;23.346;2023-07-13T03:35:29;18.80;;;13.27;;
20623;SDS011;10471;42.736;23.346;2023-07-13T03:37:55;20.93;;;13.00;;
20623;SDS011;10471;42.736;23.346;2023-07-13T03:40:20;20.90;;;13.07;;
20623;SDS011;10471;42.736;23.346;2023-07-13T03:42:46;18.10;;;12.73;;
20623;SDS011;10471;42.736;23.346;2023-07-13T03:45:11;25.63;;;13.67;;
20623;SDS011;10471;42.736;23.346;2023-07-13T03:47:37;19.03;;;13.23;;
20623;SDS011;10471;42.736;23.346;2023-07-13T03:50:02;23.13;;;14.30;;
20623;SDS011;10471;42.736;23.346;2023-07-13T03:52:28;22.50;;;13.13;;
20623;SDS011;10471;42.736;23.346;2023-07-13T03:54:54;19.37;;;12.50;;
20623;SDS011;10471;42.736;23.346;2023-07-13T03:57:19;23.27;;;14.50;;
20623;SDS011;10471;42.736;23.346;2023-07-13T03:59:44;20.87;;;15.13;;
20623;SDS011;10471;42.736;23.346;2023-07-13T04:02:10;23.10;;;15.43;;
20623;SDS011;10471;42.736;23.346;2023-07-13T04:04:35;20.23;;;14.23;;
20623;SDS011;10471;42.736;23.346;2023-07-13T04:07:01;21.43;;;14.87;;
20623;SDS011;10471;42.736;23.346;2023-07-13T04:09:26;17.13;;;14.03;;
20623;SDS011;10471;42.736;23.346;2023-07-13T04:11:51;18.47;;;15.00;;
20623;SDS011;10471;42.736;23.346;2023-07-13T04:14:17;22.83;;;14.17;;
20623;SDS011;10471;42.736;23.346;2023-07-13T04:16:42;23.60;;;15.10;;
20623;SDS011;10471;42.736;23.346;2023-07-13T04:19:08;20.90;;;13.57;;
20623;SDS011;10471;42.736;23.346;2023-07-13T04:21:35;25.10;;;12.27;;
20623;SDS011;10471;42.736;23.346;2023-07-13T04:24:01;16.50;;;11.90;;
20623;SDS011;10471;42.736;23.346;2023-07-13T04:26:27;21.67;;;12.77;;
20623;SDS011;10471;42.736;23.346;2023-07-13T04:28:53;16.47;;;12.67;;
20623;SDS011;10471;42.736;23.346;2023-07-13T04:31:19;25.03;;;13.23;;
20623;SDS011;10471;42.736;23.346;2023-07-13T04:33:45;19.30;;;13.20;;
20623;SDS011;10471;42.736;23.346;2023-07-13T04:36:11;16.53;;;13.17;;
20623;SDS011;10471;42.736;23.346;2023-07-13T04:38:36;20.70;;;13.33;;
20623;SDS011;10471;42.736;23.346;2023-07-13T04:41:03;18.73;;;14.40;;
20623;SDS011;10471;42.736;23.346;2023-07-13T04:43:31;18.33;;;14.83;;
20623;SDS011;10471;42.736;23.346;2023-07-13T04:45:57;19.57;;;15.60;;
20623;SDS011;10471;42.736;23.346;2023-07-13T04:48:28;21.43;;;17.53;;
20623;SDS011;10471;42.736;23.346;2023-07-13T04:50:55;24.13;;;18.53;;
20623;SDS011;10471;42.736;23.346;2023-07-13T04:53:21;27.33;;;20.00;;
20623;SDS011;10471;42.736;23.346;2023-07-13T04:55:47;22.53;;;19.37;;
20623;SDS011;10471;42.736;23.346;2023-07-13T04:58:13;21.23;;;18.57;;
20623;SDS011;10471;42.736;23.346;2023-07-13T05:00:38;21.10;;;17.47;;
20623;SDS011;10471;42.736;23.346;2023-07-13T05:03:04;20.77;;;16.67;;
20623;SDS011;10471;42.736;23.346;2023-07-13T05:05:30;21.50;;;16.73;;
20623;SDS011;10471;42.736;23.346;2023-07-13T05:07:55;17.30;;;13.43;;
20623;SDS011;10471;42.736;23.346;2023-07-13T05:10:21;18.33;;;13.07;;
20623;SDS011;10471;42.736;23.346;2023-07-13T05:12:47;14.70;;;12.33;;
20623;SDS011;10471;42.736;23.346;2023-07-13T05:15:12;16.80;;;12.53;;
20623;SDS011;10471;42.736;23.346;2023-07-13T05:17:38;17.03;;;12.73;;
20623;SDS011;10471;42.736;23.346;2023-07-13T05:20:05;18.80;;;13.67;;
20623;SDS011;10471;42.736;23.346;2023-07-13T05:22:32;16.03;;;13.33;;
20623;SDS011;10471;42.736;23.346;2023-07-13T05:25:00;17.73;;;13.73;;
20623;SDS011;10471;42.736;23.346;2023-07-13T05:27:26;19.37;;;14.70;;
20623;SDS011;10471;42.736;23.346;2023-07-13T05:29:51;17.03;;;14.57;;
20623;SDS011;10471;42.736;23.346;2023-07-13T05:32:17;18.17;;;13.93;;
20623;SDS011;10471;42.736;23.346;2023-07-13T05:34:43;16.43;;;13.20;;
20623;SDS011;10471;42.736;23.346;2023-07-13T05:37:09;18.90;;;14.10;;
20623;SDS011;10471;42.736;23.346;2023-07-13T05:39:35;15.63;;;13.40;;
20623;SDS011;10471;42.736;23.346;2023-07-13T05:42:01;20.43;;;15.30;;
20623;SDS011;10471;42.736;23.346;2023-07-13T05:44:27;18.43;;;14.03;;
20623;SDS011;10471;42.736;23.346;2023-07-13T05:46:52;29.67;;;21.27;;
20623;SDS011;10471;42.736;23.346;2023-07-13T05:49:17;33.87;;;27.73;;
20623;SDS011;10471;42.736;23.346;2023-07-13T05:51:43;21.13;;;17.70;;
20623;SDS011;10471;42.736;23.346;2023-07-13T05:54:08;20.70;;;16.63;;
20623;SDS011;10471;42.736;23.346;2023-07-13T05:56:34;19.83;;;15.90;;
20623;SDS011;10471;42.736;23.346;2023-07-13T05:58:59;18.67;;;16.07;;
20623;SDS011;10471;42.736;23.346;2023-07-13T06:01:25;21.83;;;16.03;;
20623;SDS011;10471;42.736;23.346;2023-07-13T06:03:51;19.77;;;15.00;;
20623;SDS011;10471;42.736;23.346;2023-07-13T06:06:16;19.67;;;15.67;;
20623;SDS011;10471;42.736;23.346;2023-07-13T06:08:42;23.90;;;15.93;;
20623;SDS011;10471;42.736;23.346;2023-07-13T06:11:09;19.47;;;15.37;;
20623;SDS011;10471;42.736;23.346;2023-07-13T06:13:36;20.97;;;15.70;;
20623;SDS011;10471;42.736;23.346;2023-07-13T06:16:02;26.07;;;16.93;;
20623;SDS011;10471;42.736;23.346;2023-07-13T06:18:29;19.47;;;15.77;;
20623;SDS011;10471;42.736;23.346;2023-07-13T06:20:56;21.17;;;15.60;;
20623;SDS011;10471;42.736;23.346;2023-07-13T06:23:22;17.23;;;13.83;;
20623;SDS011;10471;42.736;23.346;2023-07-13T06:25:47;22.10;;;15.17;;
20623;SDS011;10471;42.736;23.346;2023-07-13T06:28:13;16.43;;;12.80;;
20623;SDS011;10471;42.736;23.346;2023-07-13T06:30:38;18.13;;;14.07;;
20623;SDS011;10471;42.736;23.346;2023-07-13T06:33:04;19.17;;;12.73;;
20623;SDS011;10471;42.736;23.346;2023-07-13T06:35:30;16.53;;;12.03;;
20623;SDS011;10471;42.736;23.346;2023-07-13T06:37:55;15.00;;;12.40;;
20623;SDS011;10471;42.736;23.346;2023-07-13T06:40:20;14.90;;;12.63;;
20623;SDS011;10471;42.736;23.346;2023-07-13T06:42:46;18.90;;;12.70;;
20623;SDS011;10471;42.736;23.346;2023-07-13T06:45:11;18.40;;;12.20;;
20623;SDS011;10471;42.736;23.346;2023-07-13T06:47:37;16.47;;;11.60;;
20623;SDS011;10471;42.736;23.346;2023-07-13T07:05:59;23.13;;;10.80;;
20623;SDS011;10471;42.736;23.346;2023-07-13T07:08:25;15.30;;;10.37;;
20623;SDS011;10471;42.736;23.346;2023-07-13T07:10:50;17.83;;;10.97;;
20623;SDS011;10471;42.736;23.346;2023-07-13T07:13:19;14.57;;;10.00;;
20623;SDS011;10471;42.736;23.346;2023-07-13T07:15:44;15.13;;;10.77;;
20623;SDS011;10471;42.736;23.346;2023-07-13T07:18:10;15.10;;;10.43;;
20623;SDS011;10471;42.736;23.346;2023-07-13T07:20:35;13.53;;;9.57;;
20623;SDS011;10471;42.736;23.346;2023-07-13T07:23:00;16.27;;;10.60;;
20623;SDS011;10471;42.736;23.346;2023-07-13T07:25:26;13.60;;;9.90;;
20623;SDS011;10471;42.736;23.346;2023-07-13T07:27:51;12.63;;;10.30;;
20623;SDS011;10471;42.736;23.346;2023-07-13T07:30:17;15.00;;;10.53;;
20623;SDS011;10471;42.736;23.346;2023-07-13T07:32:42;14.70;;;10.70;;
20623;SDS011;10471;42.736;23.346;2023-07-13T07:35:08;13.33;;;10.43;;
20623;SDS011;10471;42.736;23.346;2023-07-13T07:37:33;20.67;;;10.63;;
20623;SDS011;10471;42.736;23.346;2023-07-13T07:39:59;14.87;;;11.43;;
20623;SDS011;10471;42.736;23.346;2023-07-13T07:42:24;13.00;;;10.47;;
20623;SDS011;10471;42.736;23.346;2023-07-13T07:44:50;15.40;;;11.80;;
20623;SDS011;10471;42.736;23.346;2023-07-13T07:47:15;17.73;;;10.40;;
20623;SDS011;10471;42.736;23.346;2023-07-13T07:49:41;15.53;;;11.87;;
20623;SDS011;10471;42.736;23.346;2023-07-13T07:52:07;14.80;;;11.03;;
20623;SDS011;10471;42.736;23.346;2023-07-13T07:54:32;13.40;;;11.50;;
20623;SDS011;10471;42.736;23.346;2023-07-13T07:56:58;17.40;;;11.13;;
20623;SDS011;10471;42.736;23.346;2023-07-13T07:59:23;15.93;;;11.23;;
20623;SDS011;10471;42.736;23.346;2023-07-13T08:01:49;18.43;;;11.30;;
20623;SDS011;10471;42.736;23.346;2023-07-13T08:04:15;12.07;;;10.77;;
20623;SDS011;10471;42.736;23.346;2023-07-13T08:06:41;15.07;;;11.47;;
20623;SDS011;10471;42.736;23.346;2023-07-13T08:09:06;16.60;;;11.17;;
20623;SDS011;10471;42.736;23.346;2023-07-13T08:11:33;17.20;;;11.30;;
20623;SDS011;10471;42.736;23.346;2023-07-13T08:13:58;15.50;;;11.60;;
20623;SDS011;10471;42.736;23.346;2023-07-13T08:16:24;19.00;;;11.40;;
20623;SDS011;10471;42.736;23.346;2023-07-13T08:18:49;16.70;;;11.93;;
20623;SDS011;10471;42.736;23.346;2023-07-13T08:21:15;20.50;;;11.93;;
20623;SDS011;10471;42.736;23.346;2023-07-13T08:23:40;23.40;;;11.73;;
20623;SDS011;10471;42.736;23.346;2023-07-13T08:26:06;15.70;;;12.17;;
20623;SDS011;10471;42.736;23.346;2023-07-13T08:28:31;19.23;;;11.60;;
20623;SDS011;10471;42.736;23.346;2023-07-13T08:31:04;16.83;;;11.60;;
20623;SDS011;10471;42.736;23.346;2023-07-13T08:33:32;18.30;;;12.10;;
20623;SDS011;10471;42.736;23.346;2023-07-13T08:35:59;17.87;;;12.03;;
20623;SDS011;10471;42.736;23.346;2023-07-13T08:38:24;17.83;;;11.70;;
20623;SDS011;10471;42.736;23.346;2023-07-13T08:40:53;19.77;;;11.53;;
20623;SDS011;10471;42.736;23.346;2023-07-13T08:43:23;17.00;;;11.25;;
20623;SDS011;10471;42.736;23.346;2023-07-13T08:46:34;17.07;;;10.77;;
20623;SDS011;10471;42.736;23.346;2023-07-13T08:48:44;15.40;;;10.80;;
20623;SDS011;10471;42.736;23.346;2023-07-13T08:53:54;17.70;;;10.73;;
20623;SDS011;10471;42.736;23.346;2023-07-13T08:56:24;14.50;;;11.35;;
20623;SDS011;10471;42.736;23.346;2023-07-13T08:58:53;20.50;;;11.70;;
20623;SDS011;10471;42.736;23.346;2023-07-13T09:04:14;19.42;;;12.43;;
20623;SDS011;10471;42.736;23.346;2023-07-13T09:11:50;14.20;;;10.80;;
20623;SDS011;10471;42.736;23.346;2023-07-13T09:17:01;17.53;;;10.73;;
20623;SDS011;10471;42.736;23.346;2023-07-13T09:19:30;11.60;;;9.90;;
20623;SDS011;10471;42.736;23.346;2023-07-13T09:21:58;14.50;;;9.80;;
20623;SDS011;10471;42.736;23.346;2023-07-13T09:24:37;15.48;;;10.20;;
20623;SDS011;10471;42.736;23.346;2023-07-13T09:27:10;12.73;;;9.98;;
20623;SDS011;10471;42.736;23.346;2023-07-13T09:29:42;12.10;;;9.50;;
20623;SDS011;10471;42.736;23.346;2023-07-13T09:32:14;13.70;;;10.00;;
20623;SDS011;10471;42.736;23.346;2023-07-13T09:34:52;17.02;;;9.80;;
20623;SDS011;10471;42.736;23.346;2023-07-13T09:37:20;12.95;;;9.60;;
20623;SDS011;10471;42.736;23.346;2023-07-13T09:39:48;12.80;;;9.13;;
20623;SDS011;10471;42.736;23.346;2023-07-13T09:42:17;20.55;;;9.15;;
20623;SDS011;10471;42.736;23.346;2023-07-13T09:47:16;13.40;;;9.63;;
20623;SDS011;10471;42.736;23.346;2023-07-13T09:49:43;13.45;;;9.68;;
20623;SDS011;10471;42.736;23.346;2023-07-13T09:52:14;16.95;;;8.40;;
20623;SDS011;10471;42.736;23.346;2023-07-13T09:54:44;13.88;;;9.35;;
20623;SDS011;10471;42.736;23.346;2023-07-13T09:57:14;13.38;;;9.48;;
20623;SDS011;10471;42.736;23.346;2023-07-13T09:59:49;15.27;;;9.98;;
20623;SDS011;10471;42.736;23.346;2023-07-13T10:02:23;14.15;;;9.10;;
20623;SDS011;10471;42.736;23.346;2023-07-13T10:05:03;11.45;;;8.35;;
20623;SDS011;10471;42.736;23.346;2023-07-13T10:07:30;12.02;;;9.32;;
20623;SDS011;10471;42.736;23.346;2023-07-13T10:09:58;13.98;;;9.20;;
20623;SDS011;10471;42.736;23.346;2023-07-13T10:12:29;10.80;;;8.82;;
20623;SDS011;10471;42.736;23.346;2023-07-13T10:15:00;13.85;;;8.93;;
20623;SDS011;10471;42.736;23.346;2023-07-13T10:17:30;11.18;;;9.07;;
20623;SDS011;10471;42.736;23.346;2023-07-13T10:20:01;11.25;;;9.10;;
20623;SDS011;10471;42.736;23.346;2023-07-13T10:23:13;16.90;;;8.50;;
20623;SDS011;10471;42.736;23.346;2023-07-13T10:25:27;11.48;;;8.10;;
20623;SDS011;10471;42.736;23.346;2023-07-13T10:28:02;11.68;;;8.05;;
20623;SDS011;10471;42.736;23.346;2023-07-13T10:30:48;13.98;;;7.43;;
20623;SDS011;10471;42.736;23.346;2023-07-13T10:33:15;16.98;;;8.05;;
20623;SDS011;10471;42.736;23.346;2023-07-13T10:35:41;10.77;;;7.78;;
20623;SDS011;10471;42.736;23.346;2023-07-13T10:38:14;9.68;;;6.82;;
20623;SDS011;10471;42.736;23.346;2023-07-13T10:40:54;10.52;;;7.20;;
20623;SDS011;10471;42.736;23.346;2023-07-13T10:43:27;13.35;;;6.70;;
20623;SDS011;10471;42.736;23.346;2023-07-13T10:45:59;9.95;;;6.85;;
20623;SDS011;10471;42.736;23.346;2023-07-13T10:48:26;12.70;;;7.00;;
20623;SDS011;10471;42.736;23.346;2023-07-13T10:50:54;12.05;;;6.95;;
20623;SDS011;10471;42.736;23.346;2023-07-13T11:03:38;10.13;;;6.20;;
20623;SDS011;10471;42.736;23.346;2023-07-13T11:06:13;7.90;;;5.63;;
20623;SDS011;10471;42.736;23.346;2023-07-13T11:18:41;8.88;;;5.97;;
20623;SDS011;10471;42.736;23.346;2023-07-13T11:21:20;8.45;;;5.57;;
20623;SDS011;10471;42.736;23.346;2023-07-13T11:23:54;8.82;;;6.13;;
20623;SDS011;10471;42.736;23.346;2023-07-13T11:31:51;11.25;;;6.10;;
20623;SDS011;10471;42.736;23.346;2023-07-13T11:34:40;7.25;;;5.47;;
20623;SDS011;10471;42.736;23.346;2023-07-13T11:37:08;8.82;;;6.53;;
20623;SDS011;10471;42.736;23.346;2023-07-13T11:39:41;10.95;;;5.82;;
20623;SDS011;10471;42.736;23.346;2023-07-13T11:42:10;9.93;;;5.80;;
20623;SDS011;10471;42.736;23.346;2023-07-13T11:44:42;10.35;;;6.30;;
20623;SDS011;10471;42.736;23.346;2023-07-13T11:47:17;8.20;;;6.03;;
20623;SDS011;10471;42.736;23.346;2023-07-13T11:49:47;10.70;;;6.15;;
20623;SDS011;10471;42.736;23.346;2023-07-13T11:52:15;9.02;;;5.88;;
20623;SDS011;10471;42.736;23.346;2023-07-13T11:54:46;13.13;;;6.38;;
20623;SDS011;10471;42.736;23.346;2023-07-13T11:57:29;10.43;;;5.97;;
20623;SDS011;10471;42.736;23.346;2023-07-13T11:59:58;10.20;;;5.80;;
20623;SDS011;10471;42.736;23.346;2023-07-13T12:02:32;8.20;;;6.10;;
20623;SDS011;10471;42.736;23.346;2023-07-13T12:05:01;9.45;;;6.63;;
20623;SDS011;10471;42.736;23.346;2023-07-13T12:07:29;9.45;;;6.00;;
20623;SDS011;10471;42.736;23.346;2023-07-13T12:12:34;11.52;;;5.93;;
20623;SDS011;10471;42.736;23.346;2023-07-13T12:15:05;9.95;;;5.68;;
20623;SDS011;10471;42.736;23.346;2023-07-13T12:17:34;8.60;;;6.10;;
20623;SDS011;10471;42.736;23.346;2023-07-13T12:20:00;13.23;;;6.47;;
20623;SDS011;10471;42.736;23.346;2023-07-13T12:22:33;10.25;;;6.18;;
20623;SDS011;10471;42.736;23.346;2023-07-13T12:24:59;8.48;;;6.05;;
20623;SDS011;10471;42.736;23.346;2023-07-13T12:27:26;11.23;;;6.10;;
20623;SDS011;10471;42.736;23.346;2023-07-13T12:29:58;12.30;;;6.40;;
20623;SDS011;10471;42.736;23.346;2023-07-13T12:32:24;9.85;;;6.22;;
20623;SDS011;10471;42.736;23.346;2023-07-13T12:34:55;13.82;;;6.70;;
20623;SDS011;10471;42.736;23.346;2023-07-13T12:37:22;11.98;;;6.32;;
20623;SDS011;10471;42.736;23.346;2023-07-13T12:39:48;12.43;;;5.80;;
20623;SDS011;10471;42.736;23.346;2023-07-13T12:44:56;9.63;;;6.60;;
20623;SDS011;10471;42.736;23.346;2023-07-13T12:47:22;8.48;;;6.20;;
20623;SDS011;10471;42.736;23.346;2023-07-13T12:49:50;9.07;;;6.28;;
20623;SDS011;10471;42.736;23.346;2023-07-13T12:52:37;10.20;;;6.40;;
20623;SDS011;10471;42.736;23.346;2023-07-13T12:55:09;10.52;;;6.13;;
20623;SDS011;10471;42.736;23.346;2023-07-13T12:57:41;9.73;;;5.40;;
20623;SDS011;10471;42.736;23.346;2023-07-13T13:02:57;14.40;;;6.20;;
20623;SDS011;10471;42.736;23.346;2023-07-13T13:05:28;8.48;;;5.95;;
20623;SDS011;10471;42.736;23.346;2023-07-13T13:07:55;13.73;;;6.47;;
20623;SDS011;10471;42.736;23.346;2023-07-13T13:10:21;14.65;;;6.18;;
20623;SDS011;10471;42.736;23.346;2023-07-13T13:12:46;9.82;;;5.65;;
20623;SDS011;10471;42.736;23.346;2023-07-13T13:15:12;10.32;;;6.00;;
20623;SDS011;10471;42.736;23.346;2023-07-13T13:17:38;10.18;;;5.70;;
20623;SDS011;10471;42.736;23.346;2023-07-13T13:20:13;14.57;;;6.35;;
20623;SDS011;10471;42.736;23.346;2023-07-13T13:22:41;9.70;;;6.20;;
20623;SDS011;10471;42.736;23.346;2023-07-13T13:25:09;10.80;;;5.70;;
20623;SDS011;10471;42.736;23.346;2023-07-13T13:27:35;8.43;;;5.88;;
20623;SDS011;10471;42.736;23.346;2023-07-13T13:30:01;10.85;;;6.00;;
20623;SDS011;10471;42.736;23.346;2023-07-13T13:32:27;11.18;;;6.35;;
20623;SDS011;10471;42.736;23.346;2023-07-13T13:34:53;10.40;;;6.13;;
20623;SDS011;10471;42.736;23.346;2023-07-13T13:37:20;8.85;;;5.70;;
20623;SDS011;10471;42.736;23.346;2023-07-13T13:39:47;12.30;;;5.65;;
20623;SDS011;10471;42.736;23.346;2023-07-13T13:42:13;9.68;;;6.10;;
20623;SDS011;10471;42.736;23.346;2023-07-13T13:44:39;9.77;;;6.00;;
20623;SDS011;10471;42.736;23.346;2023-07-13T13:47:07;12.25;;;6.28;;
20623;SDS011;10471;42.736;23.346;2023-07-13T13:49:58;8.98;;;5.97;;
20623;SDS011;10471;42.736;23.346;2023-07-13T13:52:25;8.43;;;5.32;;
20623;SDS011;10471;42.736;23.346;2023-07-13T13:54:51;11.32;;;6.07;;
20623;SDS011;10471;42.736;23.346;2023-07-13T13:57:21;10.98;;;6.22;;
20623;SDS011;10471;42.736;23.346;2023-07-13T13:59:48;9.05;;;5.45;;
20623;SDS011;10471;42.736;23.346;2023-07-13T14:02:27;11.60;;;6.22;;
20623;SDS011;10471;42.736;23.346;2023-07-13T14:04:59;8.82;;;5.65;;
20623;SDS011;10471;42.736;23.346;2023-07-13T14:07:30;14.52;;;6.00;;
20623;SDS011;10471;42.736;23.346;2023-07-13T14:09:57;12.25;;;6.07;;
20623;SDS011;10471;42.736;23.346;2023-07-13T14:12:23;11.88;;;5.78;;
20623;SDS011;10471;42.736;23.346;2023-07-13T14:14:53;11.00;;;5.70;;
20623;SDS011;10471;42.736;23.346;2023-07-13T14:17:20;10.13;;;5.30;;
20623;SDS011;10471;42.736;23.346;2023-07-13T14:19:49;13.30;;;5.50;;
20623;SDS011;10471;42.736;23.346;2023-07-13T14:22:33;9.45;;;5.60;;
20623;SDS011;10471;42.736;23.346;2023-07-13T14:24:59;8.93;;;5.55;;
20623;SDS011;10471;42.736;23.346;2023-07-13T14:27:24;15.32;;;5.72;;
20623;SDS011;10471;42.736;23.346;2023-07-13T14:29:50;10.93;;;5.90;;
20623;SDS011;10471;42.736;23.346;2023-07-13T14:32:15;13.05;;;6.18;;
20623;SDS011;10471;42.736;23.346;2023-07-13T14:34:41;7.75;;;5.55;;
20623;SDS011;10471;42.736;23.346;2023-07-13T14:37:11;9.55;;;6.20;;
20623;SDS011;10471;42.736;23.346;2023-07-13T14:39:39;9.35;;;6.47;;
20623;SDS011;10471;42.736;23.346;2023-07-13T14:42:07;13.73;;;6.85;;
20623;SDS011;10471;42.736;23.346;2023-07-13T14:44:34;13.52;;;6.65;;
20623;SDS011;10471;42.736;23.346;2023-07-13T14:47:00;13.63;;;6.80;;
20623;SDS011;10471;42.736;23.346;2023-07-13T14:52:01;8.60;;;5.22;;
20623;SDS011;10471;42.736;23.346;2023-07-13T14:54:30;12.25;;;5.85;;
20623;SDS011;10471;42.736;23.346;2023-07-13T14:56:56;10.27;;;5.60;;
20623;SDS011;10471;42.736;23.346;2023-07-13T14:59:21;9.10;;;5.68;;
20623;SDS011;10471;42.736;23.346;2023-07-13T15:01:48;8.45;;;6.13;;
20623;SDS011;10471;42.736;23.346;2023-07-13T15:04:15;12.90;;;5.75;;
20623;SDS011;10471;42.736;23.346;2023-07-13T15:06:58;10.48;;;6.50;;
20623;SDS011;10471;42.736;23.346;2023-07-13T15:09:25;9.65;;;6.20;;
20623;SDS011;10471;42.736;23.346;2023-07-13T15:11:52;9.85;;;6.00;;
20623;SDS011;10471;42.736;23.346;2023-07-13T15:14:21;10.05;;;6.13;;
20623;SDS011;10471;42.736;23.346;2023-07-13T15:16:49;10.43;;;5.95;;
20623;SDS011;10471;42.736;23.346;2023-07-13T15:19:17;11.02;;;5.47;;
20623;SDS011;10471;42.736;23.346;2023-07-13T15:21:43;9.52;;;5.57;;
20623;SDS011;10471;42.736;23.346;2023-07-13T15:24:09;6.68;;;5.30;;
20623;SDS011;10471;42.736;23.346;2023-07-13T15:26:36;10.43;;;5.70;;